This is the latest recevied weather packets stored in our database for station/object DL4MGC-10. If no packets are shown the sender has not sent any weather packets the latest 1 day(s).
| Time | Temp. | Humidity | Pressure | Rain* | Wind** | Luminosity | Snow |
|---|---|---|---|---|---|---|---|
| 1778089187 | 13.89° C | 82% | 1008.1 hPa | - | - | - | - |
| 1778088287 | 14.44° C | 82% | 1007.6 hPa | - | - | - | - |
| 1778087387 | 14.44° C | 84% | 1007.4 hPa | - | - | - | - |
| 1778086487 | 14.44° C | 86% | 1007.2 hPa | - | - | - | - |
| 1778085587 | 15° C | 85% | 1007 hPa | - | - | - | - |
| 1778083787 | 15.56° C | 78% | 1006.8 hPa | - | - | - | - |
| 1778079286 | 19.44° C | 61% | 1004.9 hPa | - | - | - | - |
| 1778078386 | 19.44° C | 60% | 1005.7 hPa | - | - | - | - |
| 1778077486 | 19.44° C | 62% | 1005.6 hPa | - | - | - | - |
| 1778076586 | 18.89° C | 59% | 1005.6 hPa | - | - | - | - |
| 1778075686 | 18.89° C | 59% | 1005.5 hPa | - | - | - | - |
| 1778074786 | 20° C | 56% | 1005.5 hPa | - | - | - | - |
| 1778069385 | 22.22° C | 50% | 1005.7 hPa | - | - | - | - |
| 1778067585 | 20.56° C | 56% | 1005.9 hPa | - | - | - | - |
| 1778066685 | 19.44° C | 58% | 1005.7 hPa | - | - | - | - |
| 1778065785 | 20° C | 56% | 1005.8 hPa | - | - | - | - |
| 1778064885 | 21.11° C | 54% | 1006.4 hPa | - | - | - | - |
| 1778058584 | 18.89° C | 66% | 1007.1 hPa | - | - | - | - |
| 1778057684 | 18.89° C | 66% | 1007.2 hPa | - | - | - | - |
| 1778056784 | 18.33° C | 68% | 1007.2 hPa | - | - | - | - |
| 1778055884 | 17.78° C | 69% | 1007.2 hPa | - | - | - | - |
| 1778054984 | 17.22° C | 72% | 1007.1 hPa | - | - | - | - |
| 1778054084 | 16.11° C | 74% | 1007.1 hPa | - | - | - | - |
| 1778050483 | 14.44° C | 80% | 1007.3 hPa | - | - | - | - |
| 1778049583 | 14.44° C | 81% | 1007.3 hPa | - | - | - | - |
* Rain since midnight (hover to see other rain measurements)
** Current wind speed in m/s (hover to see current wind gust speed)